createdAt,value
2019-03-27T00:00:16.092Z,7.20
2019-03-27T00:02:48.870Z,7.00
2019-03-27T00:05:21.493Z,7.20
2019-03-27T00:07:54.154Z,7.20
2019-03-27T00:10:27.065Z,7.20
2019-03-27T00:13:00.059Z,6.90
2019-03-27T00:15:32.970Z,6.90
2019-03-27T00:18:05.674Z,7.00
2019-03-27T00:20:38.322Z,7.10
2019-03-27T00:23:11.094Z,7.00
2019-03-27T00:25:43.757Z,7.10
2019-03-27T00:28:16.564Z,7.10
2019-03-27T00:30:49.199Z,7.00
2019-03-27T00:33:22.301Z,6.70
2019-03-27T00:35:54.932Z,6.90
2019-03-27T00:38:27.618Z,6.90
2019-03-27T00:41:00.366Z,6.80
2019-03-27T00:43:33.064Z,6.70
2019-03-27T00:46:06.016Z,6.90
2019-03-27T00:48:38.721Z,6.80
2019-03-27T00:51:11.699Z,6.60
2019-03-27T00:53:44.712Z,6.70
2019-03-27T00:56:17.622Z,6.60
2019-03-27T00:58:50.571Z,6.60
2019-03-27T01:01:23.197Z,6.50
2019-03-27T01:03:56.239Z,6.50
2019-03-27T01:06:28.865Z,6.30
2019-03-27T01:09:02.450Z,6.50
2019-03-27T01:11:35.083Z,6.40
2019-03-27T01:14:08.051Z,6.70
2019-03-27T01:16:40.683Z,6.70
2019-03-27T01:19:13.709Z,6.80
2019-03-27T01:21:46.692Z,6.90
2019-03-27T01:24:19.671Z,6.80
2019-03-27T01:26:52.312Z,6.60
2019-03-27T01:29:24.985Z,6.70
2019-03-27T01:31:57.645Z,6.80
2019-03-27T01:34:30.327Z,6.80
2019-03-27T01:37:02.965Z,6.90
2019-03-27T01:39:35.910Z,7.10
2019-03-27T01:42:08.558Z,7.00
2019-03-27T01:44:41.647Z,7.00
2019-03-27T01:47:14.256Z,7.00
2019-03-27T01:49:46.925Z,6.90
2019-03-27T01:52:19.866Z,7.00
2019-03-27T01:54:52.556Z,7.10
2019-03-27T01:57:25.756Z,7.00
2019-03-27T01:59:58.401Z,7.10
2019-03-27T02:02:31.167Z,7.10
2019-03-27T02:05:03.871Z,7.00
2019-03-27T02:07:37.395Z,6.90
2019-03-27T02:10:10.694Z,7.00
2019-03-27T02:12:43.309Z,6.90
2019-03-27T02:15:16.277Z,6.90
2019-03-27T02:17:49.180Z,6.90
2019-03-27T02:20:21.868Z,7.00
2019-03-27T02:22:56.291Z,6.90
2019-03-27T02:25:29.222Z,6.80
2019-03-27T02:28:02.161Z,6.70
2019-03-27T02:30:34.792Z,6.90
2019-03-27T02:33:07.875Z,6.70
2019-03-27T02:35:40.670Z,6.60
2019-03-27T02:38:14.078Z,6.60
2019-03-27T02:40:47.005Z,6.70
2019-03-27T02:43:19.689Z,6.60
2019-03-27T02:45:52.330Z,6.50
2019-03-27T02:48:25.011Z,6.60
2019-03-27T02:50:57.612Z,6.60
2019-03-27T02:53:30.286Z,6.50
2019-03-27T02:56:02.889Z,6.60
2019-03-27T02:58:35.556Z,6.40
2019-03-27T03:01:08.487Z,6.20
2019-03-27T03:03:41.458Z,6.60
2019-03-27T03:06:14.353Z,6.50
2019-03-27T03:08:47.034Z,6.40
2019-03-27T03:11:19.664Z,6.30
2019-03-27T03:13:52.331Z,6.40
2019-03-27T03:16:41.218Z,6.30
2019-03-27T03:18:59.449Z,6.30
2019-03-27T03:21:32.061Z,6.50
2019-03-27T03:24:05.001Z,6.40
2019-03-27T03:26:37.639Z,6.40
2019-03-27T03:29:10.851Z,6.50
2019-03-27T03:31:44.161Z,6.30
2019-03-27T03:34:16.864Z,6.50
2019-03-27T03:36:49.864Z,6.50
2019-03-27T03:39:22.528Z,6.30
2019-03-27T03:41:55.511Z,6.10
2019-03-27T03:44:28.338Z,6.10
2019-03-27T03:47:01.005Z,6.10
2019-03-27T03:49:33.935Z,6.30
2019-03-27T03:52:06.955Z,6.30
2019-03-27T03:54:39.609Z,6.30
2019-03-27T03:57:12.530Z,6.10
2019-03-27T03:59:45.353Z,6.30
2019-03-27T04:02:18.678Z,6.30
2019-03-27T04:04:52.686Z,6.20
2019-03-27T04:07:26.247Z,6.30
2019-03-27T04:09:59.333Z,6.10
2019-03-27T04:12:31.987Z,6.30
2019-03-27T04:15:05.026Z,6.20
2019-03-27T04:17:37.947Z,6.00
2019-03-27T04:20:10.563Z,6.10
2019-03-27T04:22:43.571Z,6.10
2019-03-27T04:25:16.528Z,6.20
2019-03-27T04:27:49.202Z,6.40
2019-03-27T04:30:21.835Z,6.20
2019-03-27T04:32:54.665Z,6.10
2019-03-27T04:35:27.626Z,6.30
2019-03-27T04:38:00.336Z,6.40
2019-03-27T04:40:33.378Z,6.40
2019-03-27T04:43:06.041Z,6.20
2019-03-27T04:45:38.958Z,6.20
2019-03-27T04:48:11.919Z,6.10
2019-03-27T04:50:44.865Z,6.20
2019-03-27T04:53:17.935Z,6.10
2019-03-27T04:55:50.549Z,6.20
2019-03-27T04:58:23.224Z,6.20
2019-03-27T05:00:55.835Z,6.00
2019-03-27T05:03:28.491Z,6.00
2019-03-27T05:06:01.110Z,6.00
2019-03-27T05:08:33.940Z,6.10
2019-03-27T05:11:07.064Z,6.20
2019-03-27T05:13:40.021Z,6.00
2019-03-27T05:16:12.658Z,6.00
2019-03-27T05:18:45.327Z,6.10
2019-03-27T05:21:18.215Z,6.00
2019-03-27T05:23:50.879Z,6.00
2019-03-27T05:26:23.499Z,6.20
2019-03-27T05:28:56.272Z,6.20
2019-03-27T05:31:29.196Z,6.30
2019-03-27T05:34:01.893Z,6.30
2019-03-27T05:36:35.490Z,6.40
2019-03-27T05:39:08.591Z,6.50
2019-03-27T05:41:41.215Z,6.60
2019-03-27T05:44:14.536Z,6.50
2019-03-27T05:46:47.846Z,6.60
2019-03-27T05:49:20.532Z,6.40
2019-03-27T05:51:53.345Z,6.40
2019-03-27T05:54:26.019Z,6.50
2019-03-27T05:56:58.691Z,6.70
2019-03-27T05:59:32.862Z,6.70
2019-03-27T06:02:05.507Z,6.60
2019-03-27T06:04:38.182Z,6.70
2019-03-27T06:07:11.225Z,6.80
2019-03-27T06:09:44.398Z,7.00
2019-03-27T06:12:17.658Z,6.80
2019-03-27T06:14:50.206Z,6.80
2019-03-27T06:17:22.826Z,6.90
2019-03-27T06:19:55.574Z,6.90
2019-03-27T06:22:28.230Z,6.90
2019-03-27T06:25:01.012Z,7.00
2019-03-27T06:27:33.652Z,7.20
2019-03-27T06:30:07.202Z,7.00
2019-03-27T06:32:39.879Z,7.20
2019-03-27T06:35:12.649Z,7.40
2019-03-27T06:37:45.636Z,7.40
2019-03-27T06:40:18.633Z,7.40
2019-03-27T06:42:51.283Z,7.40
2019-03-27T06:45:23.923Z,7.70
2019-03-27T06:47:56.956Z,7.50
2019-03-27T06:50:29.588Z,7.60
2019-03-27T06:53:02.626Z,7.80
2019-03-27T06:55:35.548Z,8.00
2019-03-27T06:58:08.153Z,7.70
2019-03-27T07:00:41.049Z,7.80
2019-03-27T07:03:13.658Z,7.70
2019-03-27T07:05:46.311Z,7.90
2019-03-27T07:08:18.921Z,7.90
2019-03-27T07:10:51.579Z,8.20
2019-03-27T07:13:24.187Z,8.30
2019-03-27T07:15:57.230Z,8.20
2019-03-27T07:18:39.510Z,8.20
2019-03-27T07:21:04.215Z,8.20
2019-03-27T07:23:37.152Z,8.40
2019-03-27T07:26:10.136Z,8.30
2019-03-27T07:28:42.732Z,8.60
2019-03-27T07:31:15.692Z,8.30
2019-03-27T07:33:48.342Z,8.60
2019-03-27T07:36:20.982Z,8.70
2019-03-27T07:38:53.597Z,8.70
2019-03-27T07:41:26.314Z,8.80
2019-03-27T07:43:58.932Z,8.90
2019-03-27T07:46:33.267Z,9.10
2019-03-27T07:49:05.879Z,9.00
2019-03-27T07:51:38.517Z,9.10
2019-03-27T07:54:11.133Z,9.10
2019-03-27T07:56:44.145Z,9.00
2019-03-27T07:59:16.745Z,9.30
2019-03-27T08:01:49.393Z,9.00
2019-03-27T08:04:22.077Z,9.20
2019-03-27T08:06:54.707Z,9.40
2019-03-27T08:09:27.338Z,9.20
2019-03-27T08:12:00.303Z,9.50
2019-03-27T08:14:33.014Z,9.80
2019-03-27T08:17:05.704Z,9.80
2019-03-27T08:19:38.318Z,9.90
2019-03-27T08:22:10.975Z,10.10
2019-03-27T08:24:43.991Z,10.30
2019-03-27T08:27:17.028Z,10.60
2019-03-27T08:29:49.689Z,10.60
2019-03-27T08:32:22.426Z,10.60
2019-03-27T08:34:55.065Z,10.80
2019-03-27T08:37:28.044Z,11.20
2019-03-27T08:40:00.663Z,11.10
2019-03-27T08:42:33.337Z,11.00
2019-03-27T08:45:06.920Z,11.10
2019-03-27T08:47:39.882Z,11.50
2019-03-27T08:50:12.960Z,11.40
2019-03-27T08:52:45.618Z,10.90
2019-03-27T08:55:18.443Z,11.10
2019-03-27T08:57:51.369Z,11.10
2019-03-27T09:00:46.136Z,11.30
2019-03-27T09:03:18.920Z,11.40
2019-03-27T09:05:51.960Z,11.60
2019-03-27T09:08:24.614Z,11.80
2019-03-27T09:10:57.243Z,11.90
2019-03-27T09:13:32.114Z,11.80
2019-03-27T09:16:04.751Z,11.80
2019-03-27T09:18:37.391Z,11.80
2019-03-27T09:21:10.390Z,11.90
2019-03-27T09:23:45.665Z,12.00
2019-03-27T09:26:18.155Z,12.30
2019-03-27T09:28:50.826Z,11.40
2019-03-27T09:31:26.519Z,11.20
2019-03-27T09:33:59.389Z,11.30
2019-03-27T09:36:32.149Z,11.80
2019-03-27T09:39:07.216Z,11.70
2019-03-27T09:41:40.278Z,11.90
2019-03-27T09:44:13.247Z,12.20
2019-03-27T09:46:46.187Z,12.30
2019-03-27T09:49:19.208Z,11.80
2019-03-27T09:51:52.175Z,12.00
2019-03-27T09:54:24.824Z,12.20
2019-03-27T09:56:57.450Z,12.40
2019-03-27T09:59:30.494Z,12.20
2019-03-27T10:02:03.185Z,12.30
2019-03-27T10:04:35.832Z,12.00
2019-03-27T10:07:08.462Z,12.10
2019-03-27T10:09:41.433Z,12.10
2019-03-27T10:12:14.063Z,12.10
2019-03-27T10:14:47.732Z,12.00
2019-03-27T10:17:20.550Z,12.20
2019-03-27T10:20:03.181Z,12.50
2019-03-27T10:22:27.903Z,12.20
2019-03-27T10:25:00.558Z,12.10
2019-03-27T10:27:33.166Z,12.40
2019-03-27T10:30:06.358Z,13.50
2019-03-27T10:32:38.980Z,14.00
2019-03-27T10:35:12.017Z,14.70
2019-03-27T10:37:44.628Z,16.60
2019-03-27T10:40:17.399Z,16.60
2019-03-27T10:42:50.358Z,16.00
2019-03-27T10:45:23.348Z,15.00
2019-03-27T10:47:55.963Z,14.90
2019-03-27T10:50:28.614Z,14.40
2019-03-27T10:53:01.230Z,14.70
2019-03-27T10:55:34.644Z,15.70
2019-03-27T10:58:07.348Z,15.40
2019-03-27T11:00:40.510Z,15.00
2019-03-27T11:03:13.128Z,14.40
2019-03-27T11:05:46.114Z,14.00
2019-03-27T11:08:18.740Z,13.10
2019-03-27T11:10:51.394Z,12.70
2019-03-27T11:13:24.096Z,12.60
2019-03-27T11:15:56.754Z,12.30
2019-03-27T11:18:29.424Z,12.40
2019-03-27T11:21:02.039Z,12.30
2019-03-27T11:23:35.071Z,12.10
2019-03-27T11:26:07.683Z,12.10
2019-03-27T11:28:40.230Z,12.10
2019-03-27T11:31:12.958Z,12.50
2019-03-27T11:33:45.657Z,12.50
2019-03-27T11:36:18.281Z,12.40
2019-03-27T11:38:51.246Z,12.40
2019-03-27T11:41:25.169Z,12.70
2019-03-27T11:43:58.289Z,13.00
2019-03-27T11:46:32.410Z,13.30
2019-03-27T11:49:05.194Z,13.00
2019-03-27T11:51:38.238Z,13.00
2019-03-27T11:54:10.993Z,13.20
2019-03-27T11:56:44.002Z,13.20
2019-03-27T11:59:16.628Z,13.40
2019-03-27T12:01:49.271Z,13.10
2019-03-27T12:04:21.881Z,13.00
2019-03-27T12:06:54.918Z,13.30
2019-03-27T12:09:28.407Z,13.00
2019-03-27T12:12:01.051Z,13.10
2019-03-27T12:14:33.723Z,13.80
2019-03-27T12:17:06.785Z,14.30
2019-03-27T12:19:39.397Z,14.80
2019-03-27T12:22:12.043Z,14.70
2019-03-27T12:24:44.659Z,14.60
2019-03-27T12:27:17.293Z,15.00
2019-03-27T12:29:50.288Z,14.50
2019-03-27T12:32:25.147Z,14.90
2019-03-27T12:34:57.872Z,15.30
2019-03-27T12:37:30.502Z,15.30
2019-03-27T12:40:11.013Z,14.70
2019-03-27T12:42:38.430Z,15.00
2019-03-27T12:45:11.451Z,14.80
2019-03-27T12:47:43.835Z,14.60
2019-03-27T12:50:16.549Z,15.20
2019-03-27T12:52:49.488Z,15.00
2019-03-27T12:55:22.496Z,15.20
2019-03-27T12:57:55.113Z,15.30
2019-03-27T13:00:27.783Z,15.40
2019-03-27T13:03:00.387Z,15.50
2019-03-27T13:05:33.317Z,15.30
2019-03-27T13:08:06.224Z,15.50
2019-03-27T13:10:39.374Z,14.80
2019-03-27T13:13:12.362Z,14.70
2019-03-27T13:15:45.009Z,14.50
2019-03-27T13:18:17.611Z,14.50
2019-03-27T13:20:50.273Z,14.50
2019-03-27T13:23:22.881Z,14.60
2019-03-27T13:25:55.880Z,14.70
2019-03-27T13:28:28.487Z,13.80
2019-03-27T13:31:01.145Z,14.30
2019-03-27T13:33:34.205Z,14.50
2019-03-27T13:36:06.941Z,14.50
2019-03-27T13:38:39.849Z,14.40
2019-03-27T13:41:12.516Z,13.90
2019-03-27T13:43:45.133Z,14.00
2019-03-27T13:46:18.513Z,14.00
2019-03-27T13:48:51.120Z,13.60
2019-03-27T13:51:23.783Z,13.90
2019-03-27T13:53:56.393Z,14.40
2019-03-27T13:56:29.372Z,14.80
2019-03-27T13:59:01.984Z,15.00
2019-03-27T14:01:34.643Z,15.00
2019-03-27T14:04:07.276Z,15.00
2019-03-27T14:06:40.262Z,15.00
2019-03-27T14:09:12.864Z,15.30
2019-03-27T14:11:45.815Z,15.60
2019-03-27T14:14:18.435Z,16.30
2019-03-27T14:16:51.077Z,17.70
2019-03-27T14:19:23.714Z,17.80
2019-03-27T14:21:56.381Z,17.90
2019-03-27T14:24:28.994Z,17.40
2019-03-27T14:27:02.034Z,16.60
2019-03-27T14:29:34.635Z,16.60
2019-03-27T14:32:07.366Z,16.80
2019-03-27T14:34:41.466Z,16.30
2019-03-27T14:37:14.453Z,16.30
2019-03-27T14:39:47.062Z,16.00
2019-03-27T14:42:19.697Z,15.90
2019-03-27T14:44:52.302Z,15.80
2019-03-27T14:47:25.497Z,15.80
2019-03-27T14:49:58.111Z,15.40
2019-03-27T14:52:30.779Z,14.80
2019-03-27T14:55:03.571Z,14.60
2019-03-27T14:57:36.246Z,14.60
2019-03-27T15:00:10.591Z,14.00
2019-03-27T15:02:43.612Z,14.30
2019-03-27T15:05:16.779Z,13.80
2019-03-27T15:07:49.809Z,13.80
2019-03-27T15:10:22.540Z,13.80
2019-03-27T15:12:55.198Z,13.90
2019-03-27T15:15:27.826Z,13.70
2019-03-27T15:18:00.975Z,13.50
2019-03-27T15:20:33.584Z,13.50
2019-03-27T15:23:06.584Z,13.60
2019-03-27T15:25:39.193Z,13.50
2019-03-27T15:28:12.197Z,13.20
2019-03-27T15:30:44.827Z,13.30
2019-03-27T15:33:17.454Z,13.30
2019-03-27T15:35:50.903Z,13.10
2019-03-27T15:38:23.819Z,12.70
2019-03-27T15:40:56.427Z,13.10
2019-03-27T15:43:29.441Z,13.20
2019-03-27T15:46:02.088Z,13.20
2019-03-27T15:48:34.696Z,13.40
2019-03-27T15:51:07.308Z,13.40
2019-03-27T15:53:39.947Z,13.00
2019-03-27T15:56:12.621Z,13.00
2019-03-27T15:58:45.234Z,12.80
2019-03-27T16:01:17.901Z,12.90
2019-03-27T16:03:50.579Z,13.00
2019-03-27T16:06:23.234Z,13.10
2019-03-27T16:08:55.847Z,13.10
2019-03-27T16:11:28.537Z,13.00
2019-03-27T16:14:01.142Z,13.40
2019-03-27T16:16:33.863Z,13.10
2019-03-27T16:19:06.489Z,12.90
2019-03-27T16:21:39.524Z,12.90
2019-03-27T16:24:12.473Z,13.00
2019-03-27T16:26:53.329Z,12.90
2019-03-27T16:29:19.811Z,12.80
2019-03-27T16:31:52.489Z,12.70
2019-03-27T16:34:25.501Z,12.60
2019-03-27T16:36:58.531Z,12.60
2019-03-27T16:39:31.549Z,12.70
2019-03-27T16:42:07.188Z,12.40
2019-03-27T16:44:41.628Z,12.20
2019-03-27T16:47:16.152Z,12.10
2019-03-27T16:49:49.425Z,11.90
2019-03-27T16:52:22.133Z,12.20
2019-03-27T16:54:54.812Z,12.20
2019-03-27T16:57:27.543Z,12.00
2019-03-27T17:00:01.310Z,12.00
2019-03-27T17:02:34.848Z,11.90
2019-03-27T17:05:08.134Z,11.70
2019-03-27T17:07:41.330Z,11.70
2019-03-27T17:10:14.458Z,12.00
2019-03-27T17:12:47.126Z,11.80
2019-03-27T17:15:20.268Z,11.90
2019-03-27T17:17:52.964Z,11.90
2019-03-27T17:20:25.679Z,12.10
2019-03-27T17:22:58.492Z,11.70
2019-03-27T17:25:31.707Z,11.70
2019-03-27T17:28:05.281Z,11.80
2019-03-27T17:30:37.924Z,11.70
2019-03-27T17:33:10.568Z,11.70
2019-03-27T17:35:43.244Z,11.50
2019-03-27T17:38:15.975Z,11.50
2019-03-27T17:40:48.960Z,11.30
2019-03-27T17:43:21.647Z,11.20
2019-03-27T17:45:54.655Z,11.40
2019-03-27T17:48:27.305Z,11.40
2019-03-27T17:51:00.026Z,11.30
2019-03-27T17:53:32.834Z,11.30
2019-03-27T17:56:05.623Z,11.30
2019-03-27T17:58:38.331Z,11.10
2019-03-27T18:01:10.952Z,11.20
2019-03-27T18:03:43.646Z,11.00
2019-03-27T18:06:16.277Z,10.80
2019-03-27T18:08:48.950Z,10.60
2019-03-27T18:11:21.954Z,10.60
2019-03-27T18:13:54.622Z,10.50
2019-03-27T18:16:28.103Z,10.60
2019-03-27T18:19:00.771Z,10.20
2019-03-27T18:21:33.389Z,9.90
2019-03-27T18:24:06.374Z,10.10
2019-03-27T18:26:39.057Z,9.90
2019-03-27T18:29:12.045Z,9.70
2019-03-27T18:31:46.076Z,9.70
2019-03-27T18:34:19.142Z,9.70
2019-03-27T18:36:52.403Z,9.50
2019-03-27T18:39:25.164Z,9.20
2019-03-27T18:41:57.762Z,9.10
2019-03-27T18:44:30.453Z,8.90
2019-03-27T18:47:03.518Z,8.90
2019-03-27T18:49:36.141Z,8.90
2019-03-27T18:52:11.280Z,8.60
2019-03-27T18:54:44.249Z,8.30
2019-03-27T18:57:17.141Z,8.40
2019-03-27T18:59:49.823Z,8.50
2019-03-27T19:02:22.443Z,8.30
2019-03-27T19:04:55.121Z,8.00
2019-03-27T19:07:27.907Z,7.90
2019-03-27T19:10:00.595Z,7.70
2019-03-27T19:12:33.214Z,7.50
2019-03-27T19:15:06.868Z,7.40
2019-03-27T19:17:39.504Z,7.10
2019-03-27T19:20:12.320Z,7.10
2019-03-27T19:22:45.621Z,7.00
2019-03-27T19:25:18.565Z,6.70
2019-03-27T19:27:51.206Z,6.60
2019-03-27T19:30:24.361Z,6.30
2019-03-27T19:32:56.972Z,6.40
2019-03-27T19:35:29.999Z,6.30
2019-03-27T19:38:02.875Z,6.00
2019-03-27T19:40:35.674Z,6.10
2019-03-27T19:43:08.404Z,5.90
2019-03-27T19:45:41.078Z,6.00
2019-03-27T19:48:13.685Z,6.00
2019-03-27T19:50:47.041Z,5.80
2019-03-27T19:53:19.545Z,5.80
2019-03-27T19:55:53.052Z,6.10
2019-03-27T19:58:25.963Z,6.00
2019-03-27T20:00:58.939Z,6.10
2019-03-27T20:03:34.515Z,6.20
2019-03-27T20:06:06.419Z,6.20
2019-03-27T20:08:42.307Z,6.20
2019-03-27T20:11:15.833Z,6.00
2019-03-27T20:13:48.937Z,5.90
2019-03-27T20:16:22.088Z,5.90
2019-03-27T20:18:55.312Z,5.80
2019-03-27T20:21:29.462Z,5.70
2019-03-27T20:24:02.337Z,5.70
2019-03-27T20:26:35.518Z,5.50
2019-03-27T20:29:08.941Z,5.40
2019-03-27T20:31:42.157Z,5.40
2019-03-27T20:34:15.386Z,5.40
2019-03-27T20:36:48.402Z,5.30
2019-03-27T20:39:21.242Z,5.20
2019-03-27T20:41:54.604Z,5.10
2019-03-27T20:44:27.821Z,4.90
2019-03-27T20:47:02.065Z,4.70
2019-03-27T20:49:35.827Z,4.90
2019-03-27T20:52:08.492Z,4.90
2019-03-27T20:54:53.947Z,4.70
2019-03-27T20:57:15.457Z,4.60
2019-03-27T20:59:48.069Z,4.70
2019-03-27T21:02:20.745Z,4.50
2019-03-27T21:04:53.413Z,4.60
2019-03-27T21:07:26.335Z,4.70
2019-03-27T21:09:59.284Z,4.70
2019-03-27T21:12:32.050Z,4.60
2019-03-27T21:15:04.800Z,4.30
2019-03-27T21:17:37.461Z,4.30
2019-03-27T21:20:10.401Z,4.50
2019-03-27T21:22:43.047Z,4.50
2019-03-27T21:25:15.810Z,4.60
2019-03-27T21:27:48.610Z,4.40
2019-03-27T21:30:21.262Z,4.60
2019-03-27T21:32:53.929Z,4.80
2019-03-27T21:35:26.603Z,4.80
2019-03-27T21:37:59.309Z,5.00
2019-03-27T21:40:31.968Z,5.00
2019-03-27T21:43:05.262Z,4.70
2019-03-27T21:45:37.880Z,4.60
2019-03-27T21:48:10.605Z,4.30
2019-03-27T21:50:43.263Z,4.30
2019-03-27T21:53:16.379Z,4.30
2019-03-27T21:55:49.320Z,4.10
2019-03-27T21:58:22.618Z,3.90
2019-03-27T22:00:55.569Z,4.20
2019-03-27T22:03:28.300Z,3.90
2019-03-27T22:06:01.380Z,4.00
2019-03-27T22:08:34.388Z,3.90
2019-03-27T22:11:09.639Z,4.00
2019-03-27T22:13:42.914Z,3.80
2019-03-27T22:16:15.849Z,4.00
2019-03-27T22:18:48.684Z,3.70
2019-03-27T22:21:21.643Z,3.80
2019-03-27T22:23:54.569Z,3.80
2019-03-27T22:26:29.776Z,3.80
2019-03-27T22:29:02.434Z,3.80
2019-03-27T22:31:35.054Z,4.00
2019-03-27T22:34:08.316Z,3.90
2019-03-27T22:36:42.196Z,3.90
2019-03-27T22:39:15.108Z,3.60
2019-03-27T22:41:48.283Z,3.50
2019-03-27T22:44:21.864Z,3.60
2019-03-27T22:46:55.113Z,3.60
2019-03-27T22:49:27.801Z,3.50
2019-03-27T22:52:02.938Z,3.50
2019-03-27T22:54:57.102Z,3.60
2019-03-27T22:57:31.755Z,3.90
2019-03-27T23:00:04.944Z,3.90
2019-03-27T23:02:37.637Z,3.60
2019-03-27T23:05:21.585Z,3.70
2019-03-27T23:07:56.988Z,3.60
2019-03-27T23:10:30.209Z,3.60
2019-03-27T23:13:03.896Z,3.60
2019-03-27T23:15:51.250Z,3.80
2019-03-27T23:18:41.536Z,3.70
2019-03-27T23:21:16.193Z,3.90
2019-03-27T23:23:49.081Z,3.70
2019-03-27T23:26:26.989Z,3.80
2019-03-27T23:28:59.634Z,3.90
2019-03-27T23:31:35.643Z,3.70
2019-03-27T23:34:08.310Z,3.70
2019-03-27T23:36:41.090Z,3.90
2019-03-27T23:39:14.006Z,3.90
2019-03-27T23:41:46.713Z,4.10
2019-03-27T23:44:19.586Z,4.30
2019-03-27T23:46:52.205Z,4.20
2019-03-27T23:49:25.003Z,4.20
2019-03-27T23:51:58.239Z,4.30
2019-03-27T23:54:30.921Z,4.10
2019-03-27T23:57:03.538Z,4.00
2019-03-27T23:59:43.708Z,4.00
